createdAt,value
2022-09-23T00:00:27.845Z,75.20
2022-09-23T00:03:32.574Z,75.00
2022-09-23T00:06:36.729Z,74.30
2022-09-23T00:09:39.594Z,75.10
2022-09-23T00:12:42.443Z,75.40
2022-09-23T00:15:46.694Z,75.80
2022-09-23T00:18:50.510Z,75.30
2022-09-23T00:21:56.830Z,75.80
2022-09-23T00:24:59.621Z,76.10
2022-09-23T00:28:03.148Z,75.70
2022-09-23T00:31:07.150Z,75.20
2022-09-23T00:34:12.345Z,75.00
2022-09-23T00:37:16.658Z,75.30
2022-09-23T00:40:19.697Z,75.90
2022-09-23T00:43:38.776Z,75.70
2022-09-23T00:46:44.331Z,76.20
2022-09-23T00:49:50.669Z,75.80
2022-09-23T00:52:57.495Z,76.30
2022-09-23T00:56:07.189Z,75.90
2022-09-23T00:59:11.399Z,75.30
2022-09-23T01:02:16.206Z,75.30
2022-09-23T01:05:19.978Z,75.60
2022-09-23T01:08:24.843Z,75.60
2022-09-23T01:11:43.584Z,75.60
2022-09-23T01:14:56.028Z,75.70
2022-09-23T01:18:06.466Z,75.30
2022-09-23T01:21:30.023Z,75.60
2022-09-23T01:24:48.010Z,76.30
2022-09-23T01:28:03.739Z,76.20
2022-09-23T01:31:13.637Z,76.60
2022-09-23T01:34:24.616Z,76.40
2022-09-23T01:37:36.245Z,76.50
2022-09-23T01:40:48.748Z,76.40
2022-09-23T01:43:59.228Z,76.10
2022-09-23T01:47:10.931Z,76.10
2022-09-23T01:50:37.000Z,76.10
2022-09-23T01:53:46.189Z,76.50
2022-09-23T01:56:52.466Z,77.00
2022-09-23T02:00:00.171Z,78.00
2022-09-23T02:03:13.481Z,76.90
2022-09-23T02:06:20.618Z,76.00
2022-09-23T02:09:26.276Z,75.90
2022-09-23T02:12:35.686Z,76.00
2022-09-23T02:15:44.840Z,76.20
2022-09-23T02:18:54.166Z,76.00
2022-09-23T02:22:05.531Z,75.70
2022-09-23T02:25:09.783Z,76.10
2022-09-23T02:28:17.004Z,76.00
2022-09-23T02:31:29.571Z,76.20
2022-09-23T02:34:44.626Z,76.20
2022-09-23T02:37:54.641Z,76.50
2022-09-23T02:41:04.594Z,76.50
2022-09-23T02:44:10.105Z,76.00
2022-09-23T02:47:12.983Z,76.70
2022-09-23T02:50:19.060Z,76.90
2022-09-23T02:53:24.378Z,76.60
2022-09-23T02:56:28.151Z,76.70
2022-09-23T02:59:32.910Z,77.00
2022-09-23T03:02:51.715Z,76.20
2022-09-23T03:05:59.596Z,75.80
2022-09-23T03:09:11.210Z,75.80
2022-09-23T03:12:17.410Z,75.50
2022-09-23T03:15:26.214Z,76.30
2022-09-23T03:18:34.757Z,76.20
2022-09-23T03:21:42.225Z,76.00
2022-09-23T03:24:50.747Z,76.00
2022-09-23T03:27:59.071Z,76.50
2022-09-23T03:31:01.882Z,76.90
2022-09-23T03:34:10.264Z,76.60
2022-09-23T03:37:19.524Z,76.70
2022-09-23T03:40:29.039Z,76.70
2022-09-23T03:43:36.614Z,76.40
2022-09-23T03:46:44.269Z,76.90
2022-09-23T03:49:48.626Z,77.00
2022-09-23T03:52:52.855Z,76.70
2022-09-23T03:55:55.605Z,77.40
2022-09-23T03:58:58.445Z,77.50
2022-09-23T04:02:01.835Z,76.70
2022-09-23T04:05:05.524Z,77.20
2022-09-23T04:08:09.653Z,77.60
2022-09-23T04:11:12.421Z,77.20
2022-09-23T04:14:15.819Z,77.10
2022-09-23T04:17:18.883Z,76.90
2022-09-23T04:20:21.635Z,77.60
2022-09-23T04:23:26.797Z,77.70
2022-09-23T04:26:29.586Z,77.90
2022-09-23T04:29:32.429Z,77.80
2022-09-23T04:32:35.195Z,77.10
2022-09-23T04:35:40.294Z,78.20
2022-09-23T04:38:45.994Z,78.10
2022-09-23T04:41:48.815Z,78.00
2022-09-23T04:44:51.577Z,78.20
2022-09-23T04:47:54.520Z,78.20
2022-09-23T04:51:03.544Z,78.10
2022-09-23T04:54:07.666Z,78.00
2022-09-23T04:57:10.944Z,78.10
2022-09-23T05:00:15.226Z,77.20
2022-09-23T05:03:17.969Z,77.30
2022-09-23T05:06:21.641Z,76.80
2022-09-23T05:09:26.040Z,77.40
2022-09-23T05:12:28.885Z,77.50
2022-09-23T05:15:31.641Z,77.40
2022-09-23T05:18:35.813Z,77.40
2022-09-23T05:21:39.217Z,77.40
2022-09-23T05:24:43.341Z,77.50
2022-09-23T05:27:46.114Z,77.80
2022-09-23T05:30:48.900Z,77.50
2022-09-23T05:33:53.158Z,78.00
2022-09-23T05:36:55.947Z,78.60
2022-09-23T05:40:00.176Z,79.00
2022-09-23T05:43:03.501Z,79.10
2022-09-23T05:46:08.634Z,79.10
2022-09-23T05:49:11.969Z,79.00
2022-09-23T05:52:14.903Z,79.50
2022-09-23T05:55:19.036Z,80.00
2022-09-23T05:58:23.578Z,80.10
2022-09-23T06:01:28.395Z,80.70
2022-09-23T06:04:31.462Z,80.80
2022-09-23T06:07:34.200Z,80.80
2022-09-23T06:10:39.756Z,81.50
2022-09-23T06:13:42.825Z,81.90
2022-09-23T06:16:45.631Z,81.90
2022-09-23T06:19:48.361Z,83.00
2022-09-23T06:22:54.066Z,83.70
2022-09-23T06:26:03.117Z,84.40
2022-09-23T06:29:11.431Z,85.10
2022-09-23T06:32:14.219Z,84.80
2022-09-23T06:35:26.380Z,84.70
2022-09-23T06:38:30.757Z,84.90
2022-09-23T06:41:34.930Z,86.10
2022-09-23T06:44:37.678Z,85.80
2022-09-23T06:47:40.704Z,85.90
2022-09-23T06:50:44.298Z,86.50
2022-09-23T06:53:48.255Z,87.30
2022-09-23T06:56:52.471Z,85.60
2022-09-23T06:59:55.294Z,86.30
2022-09-23T07:02:58.085Z,87.20
2022-09-23T07:09:04.785Z,87.00
2022-09-23T07:12:09.101Z,86.80
2022-09-23T07:15:12.920Z,86.80
2022-09-23T07:18:15.674Z,86.30
2022-09-23T07:21:19.861Z,86.40
2022-09-23T07:24:22.905Z,87.70
2022-09-23T07:27:29.111Z,88.70
2022-09-23T07:30:32.004Z,89.20
2022-09-23T07:33:35.761Z,89.50
2022-09-23T07:36:40.538Z,89.30
2022-09-23T07:39:44.362Z,88.90
2022-09-23T07:42:48.733Z,88.20
2022-09-23T07:45:52.020Z,88.20
2022-09-23T07:48:55.799Z,88.40
2022-09-23T07:51:58.651Z,87.20
2022-09-23T07:55:01.414Z,86.40
2022-09-23T07:58:05.766Z,86.50
2022-09-23T08:01:10.318Z,87.30
2022-09-23T08:04:17.692Z,85.70
2022-09-23T08:07:20.484Z,86.80
2022-09-23T08:10:23.418Z,86.60
2022-09-23T08:13:27.548Z,86.30
2022-09-23T08:16:30.363Z,85.20
2022-09-23T08:19:33.406Z,85.70
2022-09-23T08:22:36.225Z,85.50
2022-09-23T08:25:39.052Z,85.00
2022-09-23T08:28:44.947Z,84.50
2022-09-23T08:31:48.178Z,86.60
2022-09-23T08:34:50.954Z,84.90
2022-09-23T08:37:53.785Z,83.60
2022-09-23T08:41:06.448Z,83.90
2022-09-23T08:44:17.304Z,85.00
2022-09-23T08:47:24.578Z,84.00
2022-09-23T08:50:31.746Z,82.60
2022-09-23T08:53:36.219Z,82.70
2022-09-23T08:56:39.805Z,82.30
2022-09-23T08:59:45.856Z,80.50
2022-09-23T09:02:49.664Z,82.00
2022-09-23T09:05:54.825Z,80.60
2022-09-23T09:09:00.874Z,81.90
2022-09-23T09:12:11.003Z,81.60
2022-09-23T09:15:17.257Z,80.60
2022-09-23T09:18:21.332Z,81.60
2022-09-23T09:21:29.093Z,81.40
2022-09-23T09:24:35.182Z,80.30
2022-09-23T09:27:40.609Z,79.10
2022-09-23T09:30:48.545Z,79.80
2022-09-23T09:33:57.979Z,79.90
2022-09-23T09:37:07.162Z,80.70
2022-09-23T09:40:13.115Z,81.00
2022-09-23T09:43:23.463Z,79.80
2022-09-23T09:46:52.712Z,78.50
2022-09-23T09:49:59.034Z,79.40
2022-09-23T09:53:16.629Z,77.60
2022-09-23T09:56:26.787Z,78.10
2022-09-23T09:59:30.062Z,80.70
2022-09-23T10:02:37.925Z,78.40
2022-09-23T10:05:50.436Z,79.10
2022-09-23T10:09:14.819Z,76.90
2022-09-23T10:12:20.179Z,76.80
2022-09-23T10:15:33.057Z,76.40
2022-09-23T10:18:39.008Z,76.10
2022-09-23T10:21:42.208Z,75.70
2022-09-23T10:24:50.317Z,77.00
2022-09-23T10:27:53.204Z,74.60
2022-09-23T10:31:06.515Z,74.90
2022-09-23T10:34:24.967Z,74.20
2022-09-23T10:37:39.658Z,73.20
2022-09-23T10:41:02.481Z,72.90
2022-09-23T10:44:39.261Z,71.90
2022-09-23T10:47:52.296Z,73.30
2022-09-23T10:50:59.687Z,73.90
2022-09-23T10:54:11.922Z,70.50
2022-09-23T10:57:42.441Z,71.40
2022-09-23T11:00:56.039Z,70.50
2022-09-23T11:04:25.415Z,69.80
2022-09-23T11:07:37.387Z,68.40
2022-09-23T11:10:55.848Z,65.80
2022-09-23T11:14:17.220Z,67.60
2022-09-23T11:17:44.234Z,66.70
2022-09-23T11:20:58.590Z,67.00
2022-09-23T11:24:18.368Z,66.10
2022-09-23T11:27:31.804Z,68.40
2022-09-23T11:30:42.475Z,66.60
2022-09-23T11:37:06.258Z,66.50
2022-09-23T11:40:18.766Z,66.30
2022-09-23T11:43:24.297Z,64.70
2022-09-23T11:46:33.988Z,66.10
2022-09-23T11:49:43.150Z,63.70
2022-09-23T11:52:50.975Z,63.20
2022-09-23T11:56:03.500Z,62.80
2022-09-23T11:59:15.970Z,63.40
2022-09-23T12:02:30.516Z,63.60
2022-09-23T12:05:40.460Z,63.00
2022-09-23T12:18:35.772Z,65.20
2022-09-23T12:21:56.496Z,63.90
2022-09-23T12:25:10.365Z,60.30
2022-09-23T12:28:18.312Z,61.30
2022-09-23T12:31:30.470Z,61.50
2022-09-23T12:34:41.434Z,60.60
2022-09-23T12:37:44.273Z,61.40
2022-09-23T12:40:47.899Z,62.40
2022-09-23T12:43:57.883Z,60.10
2022-09-23T12:47:31.999Z,59.70
2022-09-23T12:50:52.612Z,60.00
2022-09-23T12:54:14.432Z,60.00
2022-09-23T12:57:42.659Z,60.90
2022-09-23T13:01:09.001Z,61.00
2022-09-23T13:04:52.080Z,58.60
2022-09-23T13:08:02.326Z,58.90
2022-09-23T13:11:08.941Z,58.10
2022-09-23T13:17:33.068Z,58.10
2022-09-23T13:20:38.452Z,58.90
2022-09-23T13:24:17.942Z,58.00
2022-09-23T13:27:26.813Z,58.60
2022-09-23T13:30:31.175Z,59.60
2022-09-23T13:33:42.850Z,57.90
2022-09-23T13:36:47.367Z,58.40
2022-09-23T13:39:50.246Z,56.40
2022-09-23T13:42:58.998Z,58.50
2022-09-23T13:46:05.172Z,60.20
2022-09-23T13:49:22.535Z,57.90
2022-09-23T13:52:29.795Z,58.00
2022-09-23T13:55:37.439Z,57.10
2022-09-23T13:58:41.111Z,57.20
2022-09-23T14:01:46.996Z,57.10
2022-09-23T14:04:50.847Z,56.80
2022-09-23T14:07:54.879Z,57.90
2022-09-23T14:10:58.817Z,56.90
2022-09-23T14:14:07.511Z,57.10
2022-09-23T14:17:18.355Z,57.10
2022-09-23T14:20:22.731Z,56.80
2022-09-23T14:23:25.453Z,56.90
2022-09-23T14:26:28.264Z,57.80
2022-09-23T14:29:33.825Z,57.80
2022-09-23T14:32:40.550Z,58.20
2022-09-23T14:35:47.918Z,56.50
2022-09-23T14:38:52.597Z,56.50
2022-09-23T14:41:56.473Z,56.00
2022-09-23T14:44:59.247Z,56.10
2022-09-23T14:48:08.345Z,57.00
2022-09-23T14:51:16.213Z,56.70
2022-09-23T14:54:35.511Z,56.80
2022-09-23T14:57:39.733Z,56.50
2022-09-23T15:00:52.658Z,56.80
2022-09-23T15:03:58.217Z,58.80
2022-09-23T15:07:05.055Z,57.60
2022-09-23T15:10:09.419Z,56.50
2022-09-23T15:13:16.326Z,58.10
2022-09-23T15:16:27.401Z,57.00
2022-09-23T15:19:32.222Z,57.90
2022-09-23T15:22:44.398Z,57.80
2022-09-23T15:25:52.350Z,57.10
2022-09-23T15:28:58.364Z,58.00
2022-09-23T15:32:01.464Z,57.30
2022-09-23T15:35:06.555Z,57.30
2022-09-23T15:38:10.719Z,57.10
2022-09-23T15:41:14.226Z,58.30
2022-09-23T16:27:20.472Z,63.90
2022-09-23T16:30:23.405Z,64.80
2022-09-23T16:33:27.650Z,66.00
2022-09-23T16:36:33.431Z,66.50
2022-09-23T16:39:36.182Z,66.40
2022-09-23T16:42:39.237Z,65.90
2022-09-23T16:45:42.017Z,66.20
2022-09-23T16:48:51.334Z,65.70
2022-09-23T16:51:56.599Z,65.10
2022-09-23T16:54:59.679Z,66.20
2022-09-23T16:58:02.480Z,67.10
2022-09-23T17:01:24.459Z,67.70
2022-09-23T17:04:27.827Z,68.80
2022-09-23T17:07:32.211Z,68.50
2022-09-23T17:10:35.050Z,68.10
2022-09-23T17:13:40.725Z,68.60
2022-09-23T17:16:43.791Z,68.70
2022-09-23T17:19:46.886Z,69.20
2022-09-23T17:22:51.028Z,69.20
2022-09-23T17:28:59.272Z,67.50
2022-09-23T17:32:02.587Z,68.30
2022-09-23T17:35:05.987Z,69.60
2022-09-23T17:38:10.083Z,70.30
2022-09-23T17:41:15.364Z,70.70
2022-09-23T17:44:18.126Z,70.40
2022-09-23T17:47:21.106Z,71.90
2022-09-23T17:50:23.903Z,71.80
2022-09-23T17:53:30.983Z,71.80
2022-09-23T17:56:34.124Z,72.60
2022-09-23T17:59:36.909Z,72.80
2022-09-23T18:02:39.708Z,73.20
2022-09-23T18:05:42.963Z,72.80
2022-09-23T18:08:49.894Z,72.90
2022-09-23T18:11:52.611Z,74.20
2022-09-23T18:14:55.398Z,73.90
2022-09-23T18:17:58.117Z,73.80
2022-09-23T18:21:01.671Z,74.10
2022-09-23T18:24:28.592Z,74.90
2022-09-23T18:27:29.439Z,75.60
2022-09-23T18:30:33.430Z,75.80
2022-09-23T18:33:36.370Z,76.40
2022-09-23T18:36:40.459Z,76.80
2022-09-23T18:39:44.899Z,76.20
2022-09-23T18:42:47.665Z,76.30
2022-09-23T18:45:57.967Z,76.40
2022-09-23T18:49:18.481Z,76.30
2022-09-23T18:52:22.191Z,77.00
2022-09-23T18:55:26.930Z,77.60
2022-09-23T18:58:29.698Z,77.70
2022-09-23T19:01:33.163Z,77.60
2022-09-23T19:04:35.973Z,77.80
2022-09-23T19:07:38.778Z,78.30
2022-09-23T19:10:43.486Z,78.10
2022-09-23T19:13:46.385Z,78.70
2022-09-23T19:16:50.930Z,78.10
2022-09-23T19:19:53.900Z,78.30
2022-09-23T19:22:56.701Z,78.60
2022-09-23T19:26:04.408Z,78.70
2022-09-23T19:29:09.157Z,78.70
2022-09-23T19:32:15.822Z,79.00
2022-09-23T19:35:18.612Z,78.90
2022-09-23T19:38:22.120Z,79.30
2022-09-23T19:41:28.192Z,78.80
2022-09-23T19:44:31.716Z,79.10
2022-09-23T19:47:37.670Z,79.70
2022-09-23T19:50:41.501Z,79.40
2022-09-23T19:53:45.479Z,79.90
2022-09-23T19:56:50.071Z,79.70
2022-09-23T19:59:52.814Z,79.30
2022-09-23T20:02:56.694Z,79.90
2022-09-23T20:05:59.514Z,80.00
2022-09-23T20:09:02.995Z,80.00
2022-09-23T20:12:07.145Z,80.20
2022-09-23T20:15:11.670Z,80.20
2022-09-23T20:18:14.505Z,80.00
2022-09-23T20:21:17.287Z,80.10
2022-09-23T20:24:20.095Z,80.10
2022-09-23T20:27:24.491Z,80.10
2022-09-23T20:30:29.043Z,80.20
2022-09-23T20:33:31.843Z,80.30
2022-09-23T20:36:35.474Z,80.20
2022-09-23T21:47:17.051Z,81.90
2022-09-23T21:50:20.565Z,82.40
2022-09-23T21:53:23.959Z,83.00
2022-09-23T21:56:28.168Z,83.00
2022-09-23T21:59:32.338Z,83.10
2022-09-23T22:02:35.460Z,82.80
2022-09-23T22:05:43.891Z,83.00
2022-09-23T22:08:46.684Z,83.20
2022-09-23T22:12:09.814Z,83.90
2022-09-23T22:15:14.267Z,83.70
2022-09-23T22:18:19.245Z,83.80
2022-09-23T22:21:23.160Z,84.40
2022-09-23T22:24:25.927Z,84.60
2022-09-23T22:27:28.678Z,85.10
2022-09-23T22:30:50.208Z,84.40
2022-09-23T22:33:52.968Z,84.60
2022-09-23T22:36:56.581Z,85.60
2022-09-23T22:39:59.422Z,85.90
2022-09-23T22:43:02.482Z,85.00
2022-09-23T22:46:06.574Z,85.90
2022-09-23T22:49:09.355Z,85.60
2022-09-23T22:52:12.395Z,85.80
2022-09-23T22:55:15.206Z,85.70
2022-09-23T22:58:31.773Z,86.30
2022-09-23T23:01:37.402Z,86.30
2022-09-23T23:04:40.287Z,86.60
2022-09-23T23:07:43.122Z,86.80
2022-09-23T23:10:45.992Z,86.90
2022-09-23T23:13:48.858Z,86.70
2022-09-23T23:16:55.252Z,87.10
2022-09-23T23:19:58.384Z,87.00
2022-09-23T23:23:02.229Z,88.10
2022-09-23T23:26:09.977Z,87.80
2022-09-23T23:29:15.198Z,87.40
2022-09-23T23:32:19.269Z,87.10
2022-09-23T23:35:22.033Z,86.70
2022-09-23T23:38:24.850Z,86.80
2022-09-23T23:41:28.771Z,87.10
2022-09-23T23:44:34.262Z,87.30
2022-09-23T23:47:38.638Z,87.20
2022-09-23T23:50:41.511Z,87.10
2022-09-23T23:53:44.534Z,87.20
2022-09-23T23:56:47.291Z,87.40
2022-09-23T23:59:50.085Z,86.70
